Time;durP1;ratioP1;P1;durP2;ratioP2;P2;SDS_P1;SDS_P2;PMS_P1;PMS_P2;Temp;Humidity;BMP_temperature;BMP_pressure;BME280_temperature;BME280_humidity;BME280_pressure;Samples;Min_cycle;Max_cycle;Signal;HPM_P1;HPM_P2
2023/02/12 00:00:36;;;;;;;19.17;9.63;;;;;;;6.60;87.43;104079.34;6104730;19;20070;-76
2023/02/12 00:02:46;;;;;;;18.48;9.73;;;;;;;6.59;87.34;104078.47;6099610;19;20025;-77
2023/02/12 00:04:51;;;;;;;16.38;8.85;;;;;;;6.62;87.07;104082.00;6104643;19;20007;-76
2023/02/12 00:06:56;;;;;;;16.70;10.15;;;;;;;6.59;87.04;104083.69;6100746;19;20010;-75
2023/02/12 00:09:01;;;;;;;16.42;8.98;;;;;;;6.57;87.06;104074.91;6102916;19;20010;-76
2023/02/12 00:11:12;;;;;;;17.65;8.45;;;;;;;6.55;87.17;104079.19;6103987;19;20017;-76
2023/02/12 00:13:19;;;;;;;21.63;10.57;;;;;;;6.55;87.39;104075.72;6100969;19;20502;-76
2023/02/12 00:15:25;;;;;;;18.10;9.57;;;;;;;6.55;87.16;104080.94;6103783;19;20515;-76
2023/02/12 00:17:30;;;;;;;21.67;10.65;;;;;;;6.57;87.46;104079.25;6102078;19;20003;-77
2023/02/12 00:19:38;;;;;;;20.33;8.77;;;;;;;6.51;87.39;104082.59;6102908;19;20014;-77
2023/02/12 00:21:44;;;;;;;20.90;10.93;;;;;;;6.53;87.69;104085.22;6102627;19;20027;-75
2023/02/12 00:23:52;;;;;;;18.92;8.73;;;;;;;6.50;87.05;104083.44;6103768;19;20339;-77
2023/02/12 00:25:57;;;;;;;17.48;9.18;;;;;;;6.50;87.37;104082.53;6105045;19;20035;-76
2023/02/12 00:28:02;;;;;;;19.52;10.00;;;;;;;6.48;87.64;104087.72;6104607;19;20466;-76
2023/02/12 00:30:09;;;;;;;17.88;8.60;;;;;;;6.46;87.33;104086.78;6103056;19;20389;-77
2023/02/12 00:32:18;;;;;;;15.27;8.85;;;;;;;6.48;87.53;104084.25;6106813;19;20015;-85
2023/02/12 00:34:23;;;;;;;17.73;9.70;;;;;;;6.45;88.01;104077.19;6108680;19;20268;-85
2023/02/12 00:36:32;;;;;;;15.32;8.88;;;;;;;6.46;87.67;104078.06;6105333;19;20424;-84
2023/02/12 00:38:38;;;;;;;17.83;9.50;;;;;;;6.45;87.36;104082.44;6106267;19;20036;-84
2023/02/12 00:40:46;;;;;;;17.35;9.45;;;;;;;6.43;87.73;104071.03;6104563;19;20128;-85
2023/02/12 00:42:51;;;;;;;22.08;9.73;;;;;;;6.44;87.64;104080.63;6107172;19;20014;-84
2023/02/12 00:44:57;;;;;;;24.65;10.80;;;;;;;6.41;87.94;104075.31;6105833;19;20432;-84
2023/02/12 00:47:02;;;;;;;17.42;8.95;;;;;;;6.47;87.58;104078.09;6108186;19;20013;-85
2023/02/12 00:49:10;;;;;;;17.90;8.85;;;;;;;6.44;87.63;104072.78;6105441;19;20077;-83
2023/02/12 00:51:16;;;;;;;17.10;9.05;;;;;;;6.42;87.74;104077.09;6105421;19;20011;-83
2023/02/12 00:53:24;;;;;;;18.23;9.52;;;;;;;6.42;87.81;104073.59;6102288;19;20847;-85
2023/02/12 00:55:31;;;;;;;20.92;9.70;;;;;;;6.40;87.90;104078.78;6107019;19;20018;-85
2023/02/12 00:57:38;;;;;;;21.92;10.23;;;;;;;6.43;87.84;104076.25;6106206;19;20045;-74
2023/02/12 00:59:46;;;;;;;18.73;9.55;;;;;;;6.40;87.84;104076.19;6101708;19;20125;-75
2023/02/12 01:01:51;;;;;;;19.08;9.32;;;;;;;6.40;88.02;104076.19;6101890;19;20259;-76
2023/02/12 01:03:56;;;;;;;15.10;8.07;;;;;;;6.37;87.89;104076.97;6101186;19;20424;-76
2023/02/12 01:06:03;;;;;;;15.23;8.05;;;;;;;6.37;87.67;104076.06;6102412;19;20051;-77
2023/02/12 01:08:08;;;;;;;16.75;8.77;;;;;;;6.37;87.74;104081.28;6102518;19;20526;-85
2023/02/12 01:10:16;;;;;;;18.17;8.93;;;;;;;6.37;87.50;104076.97;6105399;19;20014;-85
2023/02/12 01:12:21;;;;;;;15.38;8.73;;;;;;;6.34;87.53;104071.63;6104146;19;20011;-84
2023/02/12 01:14:26;;;;;;;16.17;8.73;;;;;;;6.33;87.87;104071.59;6104299;19;20018;-83
2023/02/12 01:16:32;;;;;;;16.88;9.30;;;;;;;6.35;88.12;104075.16;6108961;19;20007;-85
2023/02/12 01:18:41;;;;;;;15.77;8.00;;;;;;;6.33;87.88;104075.09;6100712;19;20591;-80
2023/02/12 01:20:46;;;;;;;16.30;8.25;;;;;;;6.32;87.89;104072.47;6105316;19;20082;-84
2023/02/12 01:22:51;;;;;;;15.65;8.35;;;;;;;6.30;88.08;104079.38;6099086;19;20018;-76
2023/02/12 01:24:56;;;;;;;16.05;8.13;;;;;;;6.28;87.97;104076.69;6102286;19;20056;-76
2023/02/12 01:27:06;;;;;;;16.52;8.20;;;;;;;6.27;87.99;104074.06;6104738;19;20003;-84
2023/02/12 01:29:12;;;;;;;14.80;8.50;;;;;;;6.26;87.63;104069.66;6107940;19;20473;-85
2023/02/12 01:31:20;;;;;;;13.65;7.88;;;;;;;6.27;87.79;104076.66;6110291;19;20014;-85
2023/02/12 01:33:25;;;;;;;15.82;8.13;;;;;;;6.27;88.20;104072.31;6109493;19;20351;-86
2023/02/12 01:35:31;;;;;;;14.45;7.57;;;;;;;6.27;88.20;104076.66;6111576;19;20014;-84
2023/02/12 01:37:38;;;;;;;15.68;7.53;;;;;;;6.26;87.91;104074.88;6111911;19;20485;-83
2023/02/12 01:39:43;;;;;;;17.02;8.05;;;;;;;6.24;88.11;104074.84;6109264;19;20014;-84
2023/02/12 01:41:50;;;;;;;16.75;8.82;;;;;;;6.26;88.21;104075.75;6113525;19;21006;-84
2023/02/12 01:44:17;;;;;;;15.43;8.77;;;;;;;6.24;87.89;104069.63;6113441;19;20417;-84
2023/02/12 01:46:22;;;;;;;17.88;8.50;;;;;;;6.23;88.32;104069.56;6114293;19;20105;-84
2023/02/12 01:48:30;;;;;;;19.75;8.95;;;;;;;6.23;88.22;104072.19;6115746;19;20007;-83
2023/02/12 01:50:36;;;;;;;17.77;8.23;;;;;;;6.23;88.03;104072.19;6115597;19;20039;-84
2023/02/12 01:52:44;;;;;;;14.45;7.97;;;;;;;6.22;88.08;104083.47;6109211;19;20503;-84
2023/02/12 01:54:54;;;;;;;14.65;7.45;;;;;;;6.21;88.10;104079.06;6118624;19;20034;-83
2023/02/12 01:57:02;;;;;;;17.42;7.35;;;;;;;6.19;87.95;104072.91;6117701;19;20046;-83
2023/02/12 01:59:12;;;;;;;13.77;7.25;;;;;;;6.19;88.19;104075.53;6116520;19;20030;-84
2023/02/12 02:01:23;;;;;;;13.38;8.00;;;;;;;6.18;88.26;104077.25;6112270;19;20020;-84
2023/02/12 02:03:29;;;;;;;13.27;7.18;;;;;;;6.14;88.46;104078.91;6112240;19;20021;-84
2023/02/12 02:05:43;;;;;;;12.93;7.13;;;;;;;6.15;88.42;104075.44;6110763;19;20018;-84
2023/02/12 02:07:50;;;;;;;12.23;6.72;;;;;;;6.12;88.20;104074.47;6112121;19;20014;-84
2023/02/12 02:09:56;;;;;;;12.80;7.65;;;;;;;6.14;87.80;104078.91;6113656;19;20098;-83
2023/02/12 02:14:36;;;;;;;13.82;7.28;;;;;;;6.15;88.29;104067.59;6102809;19;20014;-76
2023/02/12 02:16:45;;;;;;;15.18;7.93;;;;;;;6.18;87.94;104084.22;6104111;19;20015;-77
2023/02/12 02:18:57;;;;;;;12.45;7.00;;;;;;;6.16;88.09;104081.53;6108804;19;20011;-75
2023/02/12 02:21:21;;;;;;;12.27;7.03;;;;;;;6.14;87.78;104083.25;6106867;19;20010;-76
2023/02/12 02:24:02;;;;;;;13.60;7.53;;;;;;;6.14;88.00;104084.13;6105961;19;20073;-75
2023/02/12 02:26:30;;;;;;;12.98;6.68;;;;;;;6.12;88.04;104082.31;6107825;19;20011;-76
2023/02/12 02:28:54;;;;;;;12.25;6.95;;;;;;;6.10;88.51;104083.97;6111733;19;20118;-84
2023/02/12 02:31:09;;;;;;;13.75;8.15;;;;;;;6.10;88.32;104081.38;6088289;19;20026;-84
2023/02/12 02:33:37;;;;;;;17.17;7.25;;;;;;;6.07;88.13;104076.94;6108999;19;20011;-83
2023/02/12 02:35:56;;;;;;;14.63;7.63;;;;;;;6.06;88.22;104083.00;6109038;19;20010;-75
2023/02/12 02:38:20;;;;;;;12.65;7.07;;;;;;;6.06;88.24;104083.00;6107772;19;20018;-76
2023/02/12 02:40:27;;;;;;;12.95;7.38;;;;;;;6.07;88.32;104083.88;6106415;19;20616;-76
2023/02/12 02:42:38;;;;;;;13.52;6.85;;;;;;;6.05;88.52;104078.59;6106544;19;20007;-77
2023/02/12 02:44:49;;;;;;;17.85;8.73;;;;;;;6.04;88.25;104076.84;6103174;19;20077;-77
2023/02/12 02:47:00;;;;;;;18.23;8.25;;;;;;;6.06;88.04;104084.75;6106637;19;20359;-76
2023/02/12 02:49:07;;;;;;;14.80;8.15;;;;;;;6.07;87.37;104071.72;6106847;19;20070;-75
2023/02/12 02:51:21;;;;;;;14.73;8.38;;;;;;;6.09;87.99;104077.00;6105988;19;20048;-75
2023/02/12 02:53:31;;;;;;;14.70;8.05;;;;;;;6.08;87.69;104076.13;6098321;19;20439;-75
2023/02/12 02:55:50;;;;;;;13.35;7.53;;;;;;;6.07;88.11;104074.31;6105206;19;20018;-75
2023/02/12 02:57:59;;;;;;;14.27;7.80;;;;;;;6.05;87.76;104065.56;6102682;19;20019;-76
2023/02/12 03:00:14;;;;;;;17.98;7.97;;;;;;;6.08;87.44;104068.28;6102752;19;20010;-76
2023/02/12 03:02:27;;;;;;;14.60;7.63;;;;;;;6.07;87.59;104063.88;6102823;19;20030;-75
2023/02/12 03:04:36;;;;;;;12.38;7.65;;;;;;;6.07;87.35;104061.28;6103158;19;20619;-76
2023/02/12 03:06:48;;;;;;;13.57;8.00;;;;;;;6.07;87.27;104061.28;6099238;19;20459;-76
2023/02/12 03:08:59;;;;;;;18.13;9.18;;;;;;;6.07;87.31;104061.28;6103489;19;20027;-75
2023/02/12 03:11:11;;;;;;;14.63;8.18;;;;;;;6.05;87.52;104060.34;6101728;19;20006;-74
2023/02/12 03:13:22;;;;;;;15.40;8.65;;;;;;;6.04;87.50;104061.19;6100830;19;20018;-83
2023/02/12 03:15:33;;;;;;;18.05;9.25;;;;;;;6.07;86.98;104060.38;6104839;19;20017;-76
2023/02/12 03:17:46;;;;;;;23.15;11.48;;;;;;;6.05;87.07;104060.34;6098430;19;20036;-76
2023/02/12 03:19:57;;;;;;;17.92;11.30;;;;;;;6.03;87.31;104059.44;6103571;19;20472;-76
2023/02/12 03:22:06;;;;;;;20.00;10.75;;;;;;;6.01;87.31;104052.38;6103369;19;20011;-75
2023/02/12 03:24:16;;;;;;;18.42;10.10;;;;;;;6.04;87.07;104061.19;6104358;19;20037;-76
2023/02/12 03:26:27;;;;;;;18.27;10.57;;;;;;;6.03;87.13;104056.81;6103720;19;20073;-75
2023/02/12 03:28:35;;;;;;;17.65;9.77;;;;;;;6.03;86.99;104050.69;6101926;19;20007;-76
2023/02/12 03:30:47;;;;;;;19.02;9.95;;;;;;;6.03;86.92;104055.91;6102178;19;20022;-76
2023/02/12 03:33:03;;;;;;;21.35;11.18;;;;;;;6.05;86.53;104062.06;6099451;19;20062;-75
2023/02/12 03:35:15;;;;;;;16.65;9.10;;;;;;;6.05;86.32;104062.06;6105501;19;20027;-76
2023/02/12 03:37:23;;;;;;;16.02;9.63;;;;;;;6.04;86.19;104053.34;6101611;19;20014;-76
2023/02/12 03:39:32;;;;;;;12.98;6.97;;;;;;;6.06;86.01;104058.63;6103972;19;20025;-76
2023/02/12 03:41:45;;;;;;;12.85;7.78;;;;;;;6.09;85.35;104053.50;6101380;19;20040;-76
2023/02/12 03:43:54;;;;;;;13.18;7.63;;;;;;;6.09;84.96;104059.59;6099927;19;20026;-74
2023/02/12 03:46:08;;;;;;;12.40;6.82;;;;;;;6.12;84.35;104054.47;6104272;19;20055;-76
2023/02/12 03:48:23;;;;;;;10.65;6.72;;;;;;;6.09;84.92;104054.38;6101672;19;20513;-76
2023/02/12 03:50:38;;;;;;;11.95;7.22;;;;;;;6.07;85.19;104055.16;6079942;19;20019;-84
2023/02/12 03:52:44;;;;;;;12.00;6.95;;;;;;;6.07;84.59;104058.66;6094178;19;20022;-76
2023/02/12 03:54:49;;;;;;;11.95;6.90;;;;;;;6.06;85.00;104062.13;6103850;19;20019;-76
2023/02/12 03:57:00;;;;;;;11.73;6.93;;;;;;;6.06;84.98;104067.34;6103649;19;20021;-76
2023/02/12 03:59:06;;;;;;;11.25;6.95;;;;;;;6.06;84.75;104058.63;6101648;19;20018;-76
2023/02/12 04:01:11;;;;;;;13.63;8.18;;;;;;;6.05;84.64;104049.88;6100988;19;20523;-75
2023/02/12 04:03:19;;;;;;;12.48;7.90;;;;;;;6.05;84.86;104062.06;6101276;19;20015;-75
2023/02/12 04:05:27;;;;;;;15.98;8.93;;;;;;;6.03;85.38;104062.03;6102148;19;20007;-75
2023/02/12 04:07:32;;;;;;;18.95;10.38;;;;;;;6.03;85.08;104059.44;6100930;19;20006;-76
2023/02/12 04:09:40;;;;;;;15.90;10.38;;;;;;;6.03;85.09;104064.66;6098378;19;20015;-75
2023/02/12 04:11:56;;;;;;;14.35;9.30;;;;;;;6.02;85.21;104068.06;6104648;19;20015;-75
2023/02/12 04:14:15;;;;;;;13.45;8.18;;;;;;;6.01;85.15;104071.53;6100644;19;20011;-84
2023/02/12 04:16:27;;;;;;;14.85;8.85;;;;;;;5.97;85.89;104071.38;6104512;19;20007;-85
2023/02/12 04:18:43;;;;;;;14.68;8.88;;;;;;;5.97;85.57;104074.00;6107779;19;20010;-84
2023/02/12 04:21:00;;;;;;;12.95;7.82;;;;;;;5.96;85.80;104070.50;6104522;19;20032;-84
2023/02/12 04:23:15;;;;;;;14.35;7.57;;;;;;;5.96;85.33;104080.94;6108114;19;20006;-84
2023/02/12 04:25:37;;;;;;;14.93;8.65;;;;;;;5.99;84.53;104078.44;6107973;19;20002;-84
2023/02/12 04:27:50;;;;;;;15.65;8.05;;;;;;;6.00;84.52;104088.03;6108203;19;20002;-83
2023/02/12 04:30:00;;;;;;;12.48;7.60;;;;;;;6.05;84.05;104089.06;6107853;19;20026;-83
2023/02/12 04:32:13;;;;;;;13.77;7.40;;;;;;;6.06;83.77;104084.75;6107606;19;20011;-84
2023/02/12 04:34:32;;;;;;;13.27;7.63;;;;;;;6.03;84.74;104095.97;6109493;19;20358;-83
2023/02/12 04:36:44;;;;;;;12.75;6.97;;;;;;;6.00;84.88;104098.47;6110643;19;20032;-83
2023/02/12 04:38:55;;;;;;;12.63;8.27;;;;;;;6.04;84.18;104102.97;6103550;19;20041;-82
2023/02/12 04:41:02;;;;;;;15.20;8.98;;;;;;;6.08;83.89;104104.84;6109480;19;20030;-83
2023/02/12 04:43:08;;;;;;;14.88;7.82;;;;;;;6.04;84.41;104097.72;6113461;19;20116;-84
2023/02/12 04:45:14;;;;;;;12.75;7.20;;;;;;;6.04;84.44;104097.72;6111130;19;20014;-83
2023/02/12 04:47:22;;;;;;;18.40;8.15;;;;;;;6.05;84.34;104098.63;6106934;19;20082;-76
2023/02/12 04:49:30;;;;;;;14.48;8.63;;;;;;;6.04;84.42;104089.91;6105102;19;20022;-76
2023/02/12 04:51:36;;;;;;;13.07;7.65;;;;;;;6.03;84.89;104105.50;6108452;19;20368;-82
2023/02/12 04:53:40;;;;;;;12.25;7.72;;;;;;;5.99;84.79;104101.94;6108951;19;20006;-83
2023/02/12 04:55:46;;;;;;;15.95;8.60;;;;;;;6.02;84.66;104102.00;6111416;19;20017;-82
2023/02/12 04:57:51;;;;;;;14.93;7.60;;;;;;;6.04;84.39;104102.97;6087751;19;20014;-83
2023/02/12 04:59:56;;;;;;;14.60;8.45;;;;;;;6.05;84.61;104104.72;6109071;19;20019;-83
2023/02/12 05:02:01;;;;;;;14.57;9.13;;;;;;;6.04;84.79;104102.97;6106038;19;20125;-83
2023/02/12 05:04:08;;;;;;;13.43;8.38;;;;;;;6.01;85.00;104096.75;6105638;19;20007;-76
2023/02/12 05:06:16;;;;;;;12.30;7.20;;;;;;;5.98;84.94;104097.56;6101920;19;20011;-76
2023/02/12 05:08:21;;;;;;;14.25;8.05;;;;;;;5.97;85.22;104100.09;6102761;19;20072;-76
2023/02/12 05:10:26;;;;;;;11.18;7.03;;;;;;;5.95;85.42;104100.06;6103511;19;20010;-75
2023/02/12 05:12:31;;;;;;;13.38;7.57;;;;;;;5.97;85.47;104094.88;6100618;19;20608;-77
2023/02/12 05:14:36;;;;;;;12.98;7.90;;;;;;;5.93;85.50;104094.78;6100274;19;20109;-77
2023/02/12 05:16:41;;;;;;;12.18;7.22;;;;;;;5.92;85.82;104095.63;6098924;19;20021;-77
2023/02/12 05:18:46;;;;;;;12.93;7.55;;;;;;;5.92;85.73;104087.78;6099871;19;20015;-76
2023/02/12 05:20:57;;;;;;;13.35;7.88;;;;;;;5.93;85.68;104088.66;6103831;19;20472;-77
2023/02/12 05:23:05;;;;;;;12.10;7.03;;;;;;;5.96;84.89;104087.91;6101671;19;20049;-76
2023/02/12 05:25:10;;;;;;;13.68;8.18;;;;;;;5.98;84.72;104089.72;6101979;19;20013;-76
2023/02/12 05:27:15;;;;;;;13.85;7.85;;;;;;;5.99;84.61;104093.22;6102163;19;20267;-77
2023/02/12 05:29:20;;;;;;;13.00;7.30;;;;;;;5.96;84.74;104094.00;6102789;19;20019;-75
2023/02/12 05:31:25;;;;;;;18.85;8.10;;;;;;;5.95;84.55;104089.63;6101811;19;20007;-76
2023/02/12 05:33:31;;;;;;;14.70;7.82;;;;;;;5.96;84.42;104099.22;6100759;19;20519;-77
2023/02/12 05:35:36;;;;;;;12.32;7.57;;;;;;;5.96;84.69;104098.34;6101379;19;20011;-77
2023/02/12 05:37:41;;;;;;;15.23;9.00;;;;;;;5.96;83.98;104088.78;6101749;19;20053;-76
2023/02/12 05:39:53;;;;;;;13.65;8.30;;;;;;;5.97;84.43;104089.66;6098547;19;20336;-75
2023/02/12 05:41:59;;;;;;;13.82;8.05;;;;;;;5.94;84.90;104087.84;6097999;19;20018;-76
2023/02/12 05:44:05;;;;;;;12.52;7.13;;;;;;;5.92;84.82;104092.09;6100973;19;20114;-76
2023/02/12 05:46:11;;;;;;;13.05;7.72;;;;;;;5.92;84.31;104089.47;6101414;19;20010;-75
2023/02/12 05:48:16;;;;;;;14.60;8.73;;;;;;;5.92;84.76;104097.31;6101701;19;20054;-75
2023/02/12 05:50:21;;;;;;;13.40;8.63;;;;;;;5.94;84.45;104096.56;6100034;19;20018;-76
2023/02/12 05:52:26;;;;;;;15.73;8.63;;;;;;;5.96;84.14;104098.34;6096437;19;20018;-75
2023/02/12 05:54:32;;;;;;;14.05;8.93;;;;;;;5.94;84.20;104100.91;6101499;19;20019;-77
2023/02/12 05:56:43;;;;;;;14.57;8.48;;;;;;;5.90;85.06;104106.84;6100201;19;20010;-76
2023/02/12 05:58:50;;;;;;;14.57;8.80;;;;;;;5.89;85.07;104112.88;6094801;19;20022;-84
2023/02/12 06:00:55;;;;;;;15.45;9.38;;;;;;;5.86;85.74;104108.44;6102487;19;20014;-83
2023/02/12 06:03:03;;;;;;;13.45;7.82;;;;;;;5.84;85.03;104104.00;6099680;19;20494;-84
2023/02/12 06:05:10;;;;;;;18.63;10.23;;;;;;;5.85;84.70;104101.47;6100829;19;20010;-82
2023/02/12 06:07:15;;;;;;;16.10;9.40;;;;;;;5.88;83.89;104101.56;6099939;19;20333;-83
2023/02/12 06:09:19;;;;;;;18.63;11.00;;;;;;;5.90;84.02;104112.06;6101645;19;20464;-83
2023/02/12 06:11:25;;;;;;;20.70;11.07;;;;;;;5.89;83.98;104097.22;6101758;19;20528;-83
2023/02/12 06:13:33;;;;;;;20.50;11.23;;;;;;;5.89;83.50;104105.06;6099909;19;20043;-83
2023/02/12 06:15:40;;;;;;;21.58;11.75;;;;;;;5.86;83.90;104103.22;6106732;19;20462;-84
2023/02/12 06:17:45;;;;;;;20.38;10.98;;;;;;;5.84;83.63;104101.41;6107853;19;20469;-83
2023/02/12 06:19:50;;;;;;;19.35;10.95;;;;;;;5.84;83.76;104109.22;6107182;19;20519;-76
2023/02/12 06:21:55;;;;;;;20.58;11.25;;;;;;;5.83;84.39;104102.25;6106688;19;20259;-83
2023/02/12 06:24:01;;;;;;;24.83;11.95;;;;;;;5.85;83.52;104098.84;6108488;19;20018;-84
2023/02/12 06:26:06;;;;;;;19.20;11.18;;;;;;;5.83;83.67;104107.47;6106511;19;20019;-84
2023/02/12 06:28:11;;;;;;;21.65;12.18;;;;;;;5.82;83.60;104097.84;6108126;19;20014;-83
2023/02/12 06:30:19;;;;;;;20.42;11.50;;;;;;;5.79;84.55;104101.25;6106884;19;20048;-84
2023/02/12 06:32:24;;;;;;;23.80;12.50;;;;;;;5.80;83.99;104103.03;6106382;19;20670;-83
2023/02/12 06:34:29;;;;;;;22.30;13.32;;;;;;;5.83;83.84;104095.31;6103975;19;20047;-85
2023/02/12 06:36:35;;;;;;;23.17;11.82;;;;;;;5.81;83.88;104096.97;6108909;19;20494;-82
2023/02/12 06:38:39;;;;;;;22.20;12.02;;;;;;;5.80;84.15;104096.94;6107482;19;20014;-82
2023/02/12 06:40:44;;;;;;;21.73;12.23;;;;;;;5.78;84.16;104103.84;6102879;19;20035;-83
2023/02/12 06:42:52;;;;;;;21.83;12.00;;;;;;;5.77;84.27;104102.06;6106766;19;20029;-83
2023/02/12 06:44:58;;;;;;;27.15;14.82;;;;;;;5.76;84.20;104100.28;6108772;19;20483;-83
2023/02/12 06:47:05;;;;;;;25.08;14.50;;;;;;;5.77;83.87;104102.94;6107975;19;20006;-75
2023/02/12 06:49:15;;;;;;;26.00;14.35;;;;;;;5.76;84.14;104100.28;6105903;19;20014;-76
2023/02/12 06:51:22;;;;;;;24.63;14.35;;;;;;;5.78;83.94;104103.84;6104110;19;20010;-75
2023/02/12 06:53:27;;;;;;;24.92;13.50;;;;;;;5.77;83.88;104107.28;6101587;19;20226;-83
2023/02/12 06:55:32;;;;;;;23.98;13.30;;;;;;;5.77;84.00;104108.16;6106976;19;20018;-84
2023/02/12 06:57:38;;;;;;;26.75;13.20;;;;;;;5.76;83.83;104110.72;6108388;19;20472;-83
2023/02/12 06:59:43;;;;;;;21.10;12.82;;;;;;;5.76;84.09;104105.50;6107052;19;20014;-83
2023/02/12 07:01:48;;;;;;;25.92;13.45;;;;;;;5.77;83.90;104122.94;6106594;19;20363;-82
2023/02/12 07:03:58;;;;;;;26.70;15.20;;;;;;;5.79;83.75;104118.63;6106133;19;20009;-83
2023/02/12 07:06:05;;;;;;;26.15;13.07;;;;;;;5.79;83.52;104121.25;6106747;19;20569;-82
2023/02/12 07:08:10;;;;;;;20.95;11.55;;;;;;;5.78;83.64;104120.38;6104567;19;20023;-83
2023/02/12 07:10:15;;;;;;;26.05;13.23;;;;;;;5.78;83.58;104129.94;6106649;19;20078;-83
2023/02/12 07:12:20;;;;;;;18.98;11.27;;;;;;;5.79;83.65;104132.56;6107382;19;20439;-76
2023/02/12 07:14:25;;;;;;;20.55;11.95;;;;;;;5.80;83.42;104130.88;6100452;19;20807;-75
2023/02/12 07:16:30;;;;;;;23.60;12.25;;;;;;;5.82;83.38;104127.47;6104753;19;20020;-77
2023/02/12 07:18:36;;;;;;;22.67;12.20;;;;;;;5.79;83.81;104132.56;6101294;19;20508;-76
2023/02/12 07:20:44;;;;;;;21.33;11.98;;;;;;;5.80;83.53;104136.09;6104256;19;20394;-77
2023/02/12 07:22:51;;;;;;;21.60;11.73;;;;;;;5.81;83.25;104143.06;6105375;19;20051;-83
2023/02/12 07:24:56;;;;;;;19.40;11.45;;;;;;;5.82;83.30;104140.53;6108733;19;20044;-84
2023/02/12 07:27:01;;;;;;;19.05;11.93;;;;;;;5.74;83.46;104131.56;6106772;19;20022;-83
2023/02/12 07:29:06;;;;;;;19.08;11.20;;;;;;;5.79;83.79;104144.72;6110094;19;20013;-84
2023/02/12 07:31:13;;;;;;;19.15;11.20;;;;;;;5.78;83.53;104146.47;6107713;19;20014;-85
2023/02/12 07:33:19;;;;;;;17.63;10.80;;;;;;;5.76;83.71;104149.88;6110062;19;20058;-82
2023/02/12 07:35:24;;;;;;;17.75;10.18;;;;;;;5.74;84.28;104147.22;6112498;19;20018;-85
2023/02/12 07:37:32;;;;;;;19.83;11.65;;;;;;;5.77;83.56;104144.72;6111734;19;20014;-83
2023/02/12 07:39:40;;;;;;;18.50;11.15;;;;;;;5.78;83.70;104148.19;6110702;19;20051;-84
2023/02/12 07:41:45;;;;;;;17.02;9.90;;;;;;;5.73;83.91;104141.09;6105998;19;20014;-77
2023/02/12 07:43:55;;;;;;;17.55;9.82;;;;;;;5.82;83.75;104152.66;6106745;19;20014;-77
2023/02/12 07:46:08;;;;;;;16.48;9.73;;;;;;;5.83;84.21;104159.69;6105472;19;20357;-77
2023/02/12 07:48:13;;;;;;;18.33;10.65;;;;;;;5.83;84.22;104152.72;6106522;19;20043;-77
2023/02/12 07:50:18;;;;;;;22.10;11.30;;;;;;;5.86;83.60;104159.78;6108617;19;20341;-76
2023/02/12 07:52:23;;;;;;;18.90;10.95;;;;;;;5.87;83.68;104161.53;6108421;19;20018;-82
2023/02/12 07:54:31;;;;;;;20.42;11.30;;;;;;;5.89;83.35;104160.75;6112782;19;20032;-83
2023/02/12 07:56:40;;;;;;;16.25;10.13;;;;;;;5.90;83.39;104161.66;6114924;19;20031;-84
2023/02/12 07:58:50;;;;;;;19.77;11.10;;;;;;;5.93;83.02;104161.75;6111634;19;20008;-84
2023/02/12 08:00:54;;;;;;;16.77;9.13;;;;;;;5.91;83.68;104158.19;6110216;19;20507;-76
2023/02/12 08:03:00;;;;;;;21.40;11.68;;;;;;;5.95;83.28;104165.34;6106262;19;20035;-76
2023/02/12 08:05:05;;;;;;;20.92;11.45;;;;;;;5.95;82.81;104165.34;6106169;19;20398;-77
2023/02/12 08:07:09;;;;;;;20.42;10.55;;;;;;;5.95;83.25;104165.34;6102611;19;20014;-77
2023/02/12 08:09:17;;;;;;;22.25;11.75;;;;;;;5.98;82.79;104165.44;6104097;19;20439;-77
2023/02/12 08:11:26;;;;;;;18.40;11.27;;;;;;;6.00;83.32;104168.94;6104933;19;20031;-76
2023/02/12 08:13:31;;;;;;;21.17;11.57;;;;;;;6.01;83.28;104164.63;6106056;19;20043;-82
2023/02/12 08:15:36;;;;;;;18.65;10.88;;;;;;;6.02;82.77;104161.19;6107617;19;20023;-84
2023/02/12 08:17:42;;;;;;;19.27;11.57;;;;;;;6.04;83.25;104156.91;6101421;19;20060;-75
2023/02/12 08:19:49;;;;;;;20.00;11.32;;;;;;;6.06;83.94;104163.06;6104260;19;20018;-76
2023/02/12 08:21:56;;;;;;;17.77;9.57;;;;;;;6.07;83.88;104157.88;6101465;19;20090;-77
2023/02/12 08:24:02;;;;;;;17.52;10.20;;;;;;;6.10;83.38;104164.91;6100944;19;20017;-77
2023/02/12 08:26:12;;;;;;;19.83;10.43;;;;;;;6.14;83.38;104170.28;6103733;19;20048;-77
2023/02/12 08:28:22;;;;;;;21.13;12.65;;;;;;;6.22;83.25;104161.81;6103663;19;20011;-78
2023/02/12 08:30:26;;;;;;;23.23;12.60;;;;;;;6.28;81.55;104175.94;6103581;19;20393;-76
2023/02/12 08:32:32;;;;;;;19.38;11.27;;;;;;;6.24;82.83;104174.09;6103469;19;20015;-84
2023/02/12 08:34:39;;;;;;;18.23;10.35;;;;;;;6.30;82.70;104179.50;6105366;19;20027;-84
2023/02/12 08:36:45;;;;;;;19.58;11.73;;;;;;;6.33;83.20;104174.34;6101430;19;20014;-84
2023/02/12 08:38:50;;;;;;;18.13;10.15;;;;;;;6.29;83.20;104164.66;6107752;19;20039;-83
2023/02/12 08:40:57;;;;;;;18.10;10.30;;;;;;;6.33;82.27;104163.91;6106645;19;20140;-83
2023/02/12 08:43:02;;;;;;;18.67;10.18;;;;;;;6.38;82.72;104178.00;6106212;19;20475;-86
2023/02/12 08:45:11;;;;;;;15.88;9.98;;;;;;;6.40;80.29;104166.69;6104626;19;20464;-85
2023/02/12 08:47:16;;;;;;;18.40;10.35;;;;;;;6.48;80.45;104180.91;6102908;19;20460;-84
2023/02/12 08:49:24;;;;;;;15.25;9.30;;;;;;;6.47;80.95;104177.38;6104804;19;20006;-85
2023/02/12 08:51:31;;;;;;;16.63;9.43;;;;;;;6.52;80.75;104178.41;6106190;19;20027;-85
2023/02/12 08:53:36;;;;;;;15.45;9.80;;;;;;;6.54;80.39;104178.47;6104352;19;20018;-84
2023/02/12 08:55:41;;;;;;;17.42;9.25;;;;;;;6.57;80.09;104181.16;6106578;19;20018;-83
2023/02/12 08:57:46;;;;;;;23.20;12.95;;;;;;;6.65;79.30;104186.63;6103926;19;20022;-83
2023/02/12 08:59:51;;;;;;;21.83;11.43;;;;;;;6.69;79.72;104188.47;6104398;19;20121;-84
2023/02/12 09:01:59;;;;;;;18.67;11.95;;;;;;;6.68;80.08;104187.59;6104770;19;20081;-83
2023/02/12 09:04:04;;;;;;;19.45;10.50;;;;;;;6.75;79.19;104196.50;6103000;19;20040;-84
2023/02/12 09:06:10;;;;;;;18.42;10.35;;;;;;;6.78;78.16;104197.47;6105190;19;20015;-83
2023/02/12 09:08:15;;;;;;;17.52;9.68;;;;;;;6.79;79.43;104201.88;6107036;19;20021;-76
2023/02/12 09:10:20;;;;;;;17.52;9.65;;;;;;;6.80;79.56;104201.03;6077683;19;20011;-76
2023/02/12 09:12:25;;;;;;;19.40;10.68;;;;;;;6.81;78.62;104199.28;6102387;19;20014;-75
2023/02/12 09:14:30;;;;;;;17.02;10.43;;;;;;;6.80;79.65;104197.53;6101113;19;20115;-75
2023/02/12 09:16:38;;;;;;;19.38;10.70;;;;;;;6.80;79.52;104202.75;6102808;19;20018;-76
2023/02/12 09:18:48;;;;;;;18.92;11.15;;;;;;;6.81;79.73;104205.41;6084507;19;20043;-84
2023/02/12 09:20:53;;;;;;;21.50;10.35;;;;;;;6.83;79.84;104202.84;6101700;19;20040;-85
2023/02/12 09:23:01;;;;;;;18.08;10.75;;;;;;;6.86;79.52;104202.06;6103942;19;20463;-83
2023/02/12 09:25:06;;;;;;;16.90;10.35;;;;;;;6.91;80.60;104211.78;6105321;19;20032;-76
2023/02/12 09:27:11;;;;;;;20.58;11.38;;;;;;;6.94;79.76;104216.22;6108091;19;20010;-84
2023/02/12 09:29:16;;;;;;;16.45;9.43;;;;;;;6.89;80.09;104197.78;6105042;19;20441;-83
2023/02/12 09:31:25;;;;;;;19.13;11.30;;;;;;;7.00;79.73;104219.91;6102790;19;20019;-83
2023/02/12 09:33:30;;;;;;;16.75;10.55;;;;;;;7.00;79.75;104212.06;6101943;19;20014;-84
2023/02/12 09:35:38;;;;;;;19.05;11.18;;;;;;;7.07;78.22;104213.13;6105656;19;20425;-84
2023/02/12 09:37:45;;;;;;;20.95;11.77;;;;;;;7.12;78.46;104210.63;6102607;19;20015;-77
2023/02/12 09:39:50;;;;;;;19.60;10.60;;;;;;;7.12;78.80;104210.63;6092095;19;20002;-76
2023/02/12 09:42:21;;;;;;;19.38;10.52;;;;;;;7.15;79.01;104205.50;6101300;19;20023;-76
2023/02/12 09:44:34;;;;;;;21.92;11.38;;;;;;;7.16;76.90;104210.78;6096479;19;20531;-77
2023/02/12 09:46:51;;;;;;;17.45;10.40;;;;;;;7.19;77.74;104209.97;6101207;19;20086;-75
2023/02/12 09:49:07;;;;;;;19.67;10.23;;;;;;;7.22;76.99;104210.06;6093649;19;20669;-75
2023/02/12 09:51:15;;;;;;;17.80;10.57;;;;;;;7.23;78.01;104211.81;6105671;19;20120;-76
2023/02/12 09:53:23;;;;;;;18.20;11.13;;;;;;;7.25;77.83;104207.53;6102279;19;20011;-76
2023/02/12 09:55:31;;;;;;;21.30;10.48;;;;;;;7.28;77.41;104204.97;6106173;19;20541;-76